• Join FlightAware (Why Join?)
  • Login
  • US Flag 
09:41AM EDT


 

Airport Tracker/Info


-or-


 

Live Flight TrackerFlight Track Log ✈ TCF3559 ✈ 06-May-2013 ✈ KCLE - KIAH

Flight Track Log - Related Links

Times and Time Zones

All times are in EDT time to prevent confusion due to time zone crossing. See the TCF3559 flight status page for this flight to view local times or setup timezone preferences in your user account.

Time Position Orientation Groundspeed Altitude Reporting Facility
EDT Latitude Longitude Course Direction KTS MPH feet Rate Location/Type
11:19AM 41.4278 -81.8322 259° West 176 203 1,900  Level Cleveland Center
11:20AM 41.4778 -81.8442 350° North 224 258 3,300 2,040 Climbing Cleveland Center
11:21AM 41.5189 -81.8922 319° Northwest 250 288 5,700 2,760 Climbing Cleveland Center
11:22AM 41.2270 -82.4103 248° West  Level FlightAware Approximate
11:22AM 41.5011 -81.9806 255° West 190 219 8,600  Level Cleveland Center
11:23AM 41.1779 -82.5469 242° Southwest  Level FlightAware Approximate
11:24AM 41.1229 -82.6800 240° Southwest  Level FlightAware Approximate
11:24AM 41.3797 -82.1563 236° Southwest  Level Estimated
11:24AM 41.4092 -82.1531 236° Southwest 278 320 14,000  Level Cleveland Center
11:25AM 41.0873 -82.8221 259° West  Level FlightAware Approximate
11:26AM 41.3000 -82.3647 236° Southwest 326 375 18,600  Level Indianapolis Center
11:27AM 41.2525 -82.4556 235° Southwest 342 394 20,500 2,040 Climbing Cleveland Center
11:28AM 41.1922 -82.5700 235° Southwest 349 402 22,500 1,860 Climbing Cleveland Center
11:29AM 41.1319 -82.6811 234° Southwest 362 417 24,300 1,740 Climbing Cleveland Center
11:30AM 41.0942 -82.8067 248° West 368 423 26,100 1,320 Climbing Cleveland Center
11:33AM 41.0556 -83.0052 255° West  Level FlightAware Approximate
11:33AM 41.0347 -83.2369 255° West 403 464 29,600  Level Cleveland Center
11:35AM 40.9897 -83.5403 259° West 420 483 31,700 960 Climbing Cleveland Center
11:37AM 40.9402 -83.7587 214° Southwest  Level FlightAware Approximate
11:38AM 40.7694 -83.9269 215° Southwest 402 463 34,900  Level Indianapolis Center
11:39AM 40.6767 -84.0100 214° Southwest 401 461 35,500 480 Climbing Indianapolis Center
11:40AM 40.5847 -84.0947 215° Southwest 402 463 36,000 120 Climbing Indianapolis Center
11:42AM 40.3836 -84.2789 215° Southwest 404 465 36,000  Level Indianapolis Center
11:43AM 40.2894 -84.3619 214° Southwest 405 466 36,000  Level Indianapolis Center
11:44AM 40.2827 -84.3598 215° Southwest  Level FlightAware Approximate
11:45AM 40.1896 -84.4448 212° Southwest  Level FlightAware Approximate
11:46AM 40.1042 -84.5289 212° Southwest 405 466 36,000  Level Indianapolis Center
11:47AM 40.0100 -84.6131 214° Southwest 406 467 36,000  Level Indianapolis Center
11:48AM 39.9164 -84.6950 214° Southwest 405 466 36,000  Level Indianapolis Center
11:49AM 39.8239 -84.7781 215° Southwest 403 464 36,000  Level Indianapolis Center
11:50AM 39.7333 -84.8683 217° Southwest 407 468 36,000  Level Indianapolis Center
11:52AM 39.5675 -85.1094 228° Southwest 421 484 36,000  Level Indianapolis Center
11:53AM 39.4894 -85.2217 228° Southwest 421 484 36,000  Level Indianapolis Center
11:54AM 39.4094 -85.3347 228° Southwest 424 488 36,000  Level Indianapolis Center
11:56AM 39.2791 -85.5153 227° Southwest  Level FlightAware Approximate
11:57AM 39.1525 -85.6994 227° Southwest 429 494 36,000  Level Indianapolis Center
11:59AM 39.0281 -85.8673 226° Southwest  Level FlightAware Approximate
11:59AM 38.9886 -85.9281 226° Southwest 434 499 36,000  Level Indianapolis Center
12:00PM 38.9064 -86.0436 228° Southwest 437 503 36,000  Level Indianapolis Center
12:01PM 38.8289 -86.1517 227° Southwest 439 505 36,000  Level Indianapolis Center
12:03PM 38.6433 -86.4058 227° Southwest 442 509 36,000  Level Indianapolis Center
12:04PM 38.5589 -86.5211 227° Southwest 440 506 36,000  Level Indianapolis Center
12:06PM 38.4463 -86.6681 226° Southwest  Level FlightAware Approximate
12:06PM 38.3908 -86.7497 226° Southwest 437 503 36,000  Level Indianapolis Center
12:08PM 38.2814 -86.8875 227° Southwest  Level FlightAware Approximate
12:08PM 38.2247 -86.9769 227° Southwest 434 499 36,100  Level Indianapolis Center
12:09PM 38.1378 -87.0931 226° Southwest 431 496 36,600 540 Climbing Indianapolis Center
12:10PM 38.0544 -87.2047 227° Southwest 430 495 37,300 540 Climbing Indianapolis Center
12:11PM 37.9731 -87.3131 226° Southwest 423 487 37,800 240 Climbing Indianapolis Center
12:13PM 37.8759 -87.4390 226° Southwest  Level FlightAware Approximate
12:13PM 37.8142 -87.5278 226° Southwest 426 490 38,000  Level Memphis Center
12:14PM 37.7194 -87.6511 226° Southwest 433 498 38,000  Level Indianapolis Center
12:16PM 37.5508 -87.8728 226° Southwest 434 499 38,000  Level Indianapolis Center
12:17PM 37.4961 -87.9575 231° Southwest 428 493 38,000  Level Memphis Center
12:18PM 37.4022 -88.0517 219° Southwest 433 498 38,000  Level Memphis Center
12:19PM 37.3081 -88.1456 218° Southwest 438 504 38,000  Level Memphis Center
12:20PM 37.2158 -88.2342 217° Southwest 438 504 38,000  Level Memphis Center
12:21PM 37.1194 -88.3278 218° Southwest 433 498 38,000  Level Memphis Center
12:22PM 37.0272 -88.4158 217° Southwest 433 498 38,000  Level Memphis Center
12:23PM 36.9325 -88.5064 217° Southwest 433 498 38,000  Level Memphis Center
12:25PM 36.7864 -88.6375 216° Southwest 421 484 38,000  Level Indianapolis Center
12:26PM 36.6467 -88.7742 218° Southwest 433 498 38,000  Level Memphis Center
12:27PM 36.5539 -88.8614 217° Southwest 433 498 38,000  Level Memphis Center
12:28PM 36.4592 -88.9508 217° Southwest 433 498 38,000  Level Memphis Center
12:30PM 36.3261 -89.0639 216° Southwest  Level FlightAware Approximate
12:31PM 36.1761 -89.2128 216° Southwest 433 498 38,000  Level Memphis Center
12:33PM 35.9900 -89.3872 217° Southwest 433 498 38,000  Level Memphis Center
12:35PM 35.8583 -89.5014 215° Southwest  Level FlightAware Approximate
12:36PM 35.7186 -89.6386 216° Southwest 433 498 38,000  Level Memphis Center
12:37PM 35.7088 -89.6289 216° Southwest  Level FlightAware Approximate
12:38PM 35.5845 -89.7480 214° Southwest  Level FlightAware Approximate
12:39PM 35.4342 -89.9061 214° Southwest 421 484 38,000  Level Memphis Center
12:41PM 35.3022 -90.0162 214° Southwest  Level FlightAware Approximate
12:41PM 35.2406 -90.0800 214° Southwest 431 496 38,000  Level Memphis Center
12:42PM 35.2362 -90.0550 216° Southwest  Level FlightAware Approximate
12:42PM 35.1469 -90.1667 217° Southwest 431 496 38,000  Level Memphis Center
12:43PM 35.0511 -90.2556 217° Southwest 431 496 38,000  Level Memphis Center
12:45PM 34.8572 -90.4256 216° Southwest 431 496 38,000  Level Memphis Center
12:47PM 34.7237 -90.5340 214° Southwest  Level FlightAware Approximate
12:47PM 34.6711 -90.5919 214° Southwest 426 490 38,000  Level Memphis Center
12:48PM 34.5792 -90.6775 217° Southwest 426 490 38,000  Level Memphis Center
12:50PM 34.4763 -90.8202 234° Southwest  Level FlightAware Approximate
12:50PM 34.4469 -90.8911 234° Southwest 401 461 38,000  Level Memphis Center
12:51PM 34.3819 -90.9989 234° Southwest 401 461 38,000  Level Memphis Center
12:53PM 34.2575 -91.2042 234° Southwest 406 467 38,000  Level Memphis Center
12:54PM 34.1858 -91.3039 229° Southwest 406 467 38,000  Level Memphis Center
12:56PM 34.0390 -91.3788 203° Southwest  Level FlightAware Approximate
12:57PM 33.8878 -91.4983 208° Southwest 406 467 38,000  Level Memphis Center
12:59PM 33.7434 -91.5797 205° Southwest  Level FlightAware Approximate
12:59PM 33.6486 -91.6500 205° Southwest 408 470 38,000  Level Fort Worth Center
01:01PM 33.4481 -91.7775 208° Southwest 413 475 38,000  Level Fort Worth Center
01:03PM 33.3558 -91.7844 208° Southwest  Level FlightAware Approximate
01:03PM 33.3303 -91.8278 200° South  Level FlightAware Approximate
01:03PM 33.2408 -91.9050 200° South 419 482 38,000  Level Fort Worth Center
01:04PM 33.1372 -91.9683 207° Southwest 419 482 38,000  Level Fort Worth Center
01:05PM 33.0353 -92.0292 207° Southwest 419 482 38,000  Level Fort Worth Center
01:07PM 32.8319 -92.1550 207° Southwest 419 482 38,000  Level Fort Worth Center
01:09PM 32.7212 -92.2218 207° Southwest  Level FlightAware Approximate
01:10PM 32.5922 -92.3022 207° Southwest 406 467 38,000  Level Houston Center
01:11PM 32.4911 -92.3597 206° Southwest 407 468 38,000  Level Houston Center
01:12PM 32.3717 -92.4306 207° Southwest 402 463 38,000  Level Houston Center
01:13PM 32.2733 -92.4933 208° Southwest 401 461 38,000  Level Houston Center
01:14PM 32.1747 -92.5542 208° Southwest 401 461 38,000  Level Houston Center
01:15PM 32.0767 -92.6150 208° Southwest 400 460 38,000  Level Houston Center
01:16PM 31.9783 -92.6739 207° Southwest 398 458 38,000  Level Houston Center
01:17PM 31.8944 -92.7536 219° Southwest 389 448 38,000  Level Houston Center
01:19PM 31.7796 -92.8583 218° Southwest  Level FlightAware Approximate
01:20PM 31.6311 -93.0069 218° Southwest 384 442 38,000  Level Houston Center
01:22PM 31.5247 -93.1036 218° Southwest  Level FlightAware Approximate
01:26PM 31.1917 -93.4104 218° Southwest  Level FlightAware Approximate
01:29PM 31.0787 -93.7649 216° Southwest  Level Estimated
01:30PM 31.0147 -93.8589 221° Southwest  Level Estimated
01:30PM 30.8775 -93.7267 218° Southwest 371 427 28,800  Level Houston Center
01:31PM 30.9506 -93.9527 221° Southwest  Level Estimated
01:31PM 30.7964 -93.8039 219° Southwest 377 434 26,700  Level Houston Center
01:32PM 30.8865 -94.0464 218° Southwest  Level Estimated
01:33PM 30.7816 -94.0599 186° South  Level FlightAware Approximate
01:33PM 30.6281 -93.9628 219° Southwest 393 452 22,500  Level Houston Center
01:34PM 30.6768 -94.0732 186° South  Level FlightAware Approximate
01:34PM 30.5447 -94.0400 219° Southwest 389 448 20,400  Level Houston Center
01:35PM 30.6201 -94.1786 218° Southwest  Level Estimated
01:35PM 30.4486 -94.1300 219° Southwest 375 432 18,000  Level Houston Center
01:36PM 30.3717 -94.2022 219° Southwest 360 414 16,000 -1,920 Descending Houston Center
01:38PM 30.2406 -94.3608 226° Southwest 344 396 12,200 -1,380 Descending Houston Center
01:40PM 30.1558 -94.5497 243° Southwest 293 337 10,400 -960 Descending Houston Center
01:42PM 30.1259 -94.7449 259° West  Level FlightAware Approximate
01:43PM 30.0636 -94.7964 259° West 272 313 7,300  Level Houston Center
01:44PM 30.0294 -94.8936 248° West 273 314 6,100 -1,080 Descending Houston Center
01:45PM 29.9975 -94.9822 247° West 277 319 5,100 -780 Descending Houston Center
01:47PM 29.9911 -95.1607 270° West  Level Estimated
01:47PM 29.9933 -95.1208 270° West 221 254 3,700  Level Houston Center
01:48PM 29.9922 -95.1975 269° West 207 238 2,400 -1,200 Descending Houston Center
01:49PM 29.9933 -95.2572 271° West 198 228 1,300 -720 Descending Houston Center
01:51PM 29.9919 -95.3381 269° West 149 171 200 -540 Descending Houston Center